sensor_id;sensor_type;location;lat;lon;timestamp;P1;durP1;ratioP1;P2;durP2;ratioP2
25327;SDS011;13279;51.300;12.394;2023-09-18T00:00:49;3.90;;;3.57;;
25327;SDS011;13279;51.300;12.394;2023-09-18T00:03:17;3.60;;;3.30;;
25327;SDS011;13279;51.300;12.394;2023-09-18T00:05:47;3.40;;;3.10;;
25327;SDS011;13279;51.300;12.394;2023-09-18T00:08:14;3.77;;;3.40;;
25327;SDS011;13279;51.300;12.394;2023-09-18T00:10:42;4.70;;;3.03;;
25327;SDS011;13279;51.300;12.394;2023-09-18T00:13:13;3.23;;;3.03;;
25327;SDS011;13279;51.300;12.394;2023-09-18T00:15:40;5.07;;;2.97;;
25327;SDS011;13279;51.300;12.394;2023-09-18T00:18:09;4.77;;;3.37;;
25327;SDS011;13279;51.300;12.394;2023-09-18T00:20:36;3.90;;;3.30;;
25327;SDS011;13279;51.300;12.394;2023-09-18T00:23:05;3.37;;;2.70;;
25327;SDS011;13279;51.300;12.394;2023-09-18T00:25:32;4.23;;;3.83;;
25327;SDS011;13279;51.300;12.394;2023-09-18T00:28:00;13.73;;;3.60;;
25327;SDS011;13279;51.300;12.394;2023-09-18T00:30:28;5.13;;;3.50;;
25327;SDS011;13279;51.300;12.394;2023-09-18T00:32:55;4.33;;;3.20;;
25327;SDS011;13279;51.300;12.394;2023-09-18T00:35:24;4.47;;;3.40;;
25327;SDS011;13279;51.300;12.394;2023-09-18T00:37:51;3.80;;;3.13;;
25327;SDS011;13279;51.300;12.394;2023-09-18T00:40:20;4.20;;;3.63;;
25327;SDS011;13279;51.300;12.394;2023-09-18T00:42:48;4.80;;;3.37;;
25327;SDS011;13279;51.300;12.394;2023-09-18T00:45:15;5.70;;;3.20;;
25327;SDS011;13279;51.300;12.394;2023-09-18T00:47:43;4.13;;;3.37;;
25327;SDS011;13279;51.300;12.394;2023-09-18T00:50:11;5.43;;;3.37;;
25327;SDS011;13279;51.300;12.394;2023-09-18T00:52:41;7.57;;;3.30;;
25327;SDS011;13279;51.300;12.394;2023-09-18T00:55:09;4.07;;;3.33;;
25327;SDS011;13279;51.300;12.394;2023-09-18T00:57:38;3.60;;;3.23;;
25327;SDS011;13279;51.300;12.394;2023-09-18T01:00:06;4.03;;;3.37;;
25327;SDS011;13279;51.300;12.394;2023-09-18T01:02:34;3.70;;;3.40;;
25327;SDS011;13279;51.300;12.394;2023-09-18T01:05:01;4.43;;;3.70;;
25327;SDS011;13279;51.300;12.394;2023-09-18T01:07:29;4.10;;;3.80;;
25327;SDS011;13279;51.300;12.394;2023-09-18T01:09:57;4.43;;;3.67;;
25327;SDS011;13279;51.300;12.394;2023-09-18T01:12:26;3.97;;;3.57;;
25327;SDS011;13279;51.300;12.394;2023-09-18T01:15:04;6.40;;;4.03;;
25327;SDS011;13279;51.300;12.394;2023-09-18T01:17:39;3.30;;;3.10;;
25327;SDS011;13279;51.300;12.394;2023-09-18T01:20:09;5.47;;;3.90;;
25327;SDS011;13279;51.300;12.394;2023-09-18T01:22:39;6.23;;;3.57;;
25327;SDS011;13279;51.300;12.394;2023-09-18T01:25:06;4.47;;;4.07;;
25327;SDS011;13279;51.300;12.394;2023-09-18T01:27:34;3.83;;;3.03;;
25327;SDS011;13279;51.300;12.394;2023-09-18T01:30:02;7.33;;;3.33;;
25327;SDS011;13279;51.300;12.394;2023-09-18T01:32:31;6.47;;;3.97;;
25327;SDS011;13279;51.300;12.394;2023-09-18T01:35:02;4.33;;;3.93;;
25327;SDS011;13279;51.300;12.394;2023-09-18T01:37:31;7.03;;;3.53;;
25327;SDS011;13279;51.300;12.394;2023-09-18T01:40:02;4.67;;;3.80;;
25327;SDS011;13279;51.300;12.394;2023-09-18T01:42:32;3.90;;;3.50;;
25327;SDS011;13279;51.300;12.394;2023-09-18T01:45:00;5.20;;;3.43;;
25327;SDS011;13279;51.300;12.394;2023-09-18T01:47:28;6.50;;;3.70;;
25327;SDS011;13279;51.300;12.394;2023-09-18T01:49:55;5.23;;;3.40;;
25327;SDS011;13279;51.300;12.394;2023-09-18T01:52:23;4.90;;;4.00;;
25327;SDS011;13279;51.300;12.394;2023-09-18T01:54:50;3.80;;;3.50;;
25327;SDS011;13279;51.300;12.394;2023-09-18T01:57:20;4.63;;;3.57;;
25327;SDS011;13279;51.300;12.394;2023-09-18T01:59:47;4.37;;;3.97;;
25327;SDS011;13279;51.300;12.394;2023-09-18T02:02:14;4.30;;;3.67;;
25327;SDS011;13279;51.300;12.394;2023-09-18T02:04:41;7.83;;;3.67;;
25327;SDS011;13279;51.300;12.394;2023-09-18T02:07:10;5.50;;;3.77;;
25327;SDS011;13279;51.300;12.394;2023-09-18T02:09:38;5.93;;;3.20;;
25327;SDS011;13279;51.300;12.394;2023-09-18T02:12:06;7.70;;;4.00;;
25327;SDS011;13279;51.300;12.394;2023-09-18T02:14:35;4.27;;;3.87;;
25327;SDS011;13279;51.300;12.394;2023-09-18T02:17:04;6.03;;;4.30;;
25327;SDS011;13279;51.300;12.394;2023-09-18T02:19:31;4.93;;;3.70;;
25327;SDS011;13279;51.300;12.394;2023-09-18T02:21:59;4.60;;;3.87;;
25327;SDS011;13279;51.300;12.394;2023-09-18T02:24:28;4.20;;;3.63;;
25327;SDS011;13279;51.300;12.394;2023-09-18T02:26:55;3.70;;;3.30;;
25327;SDS011;13279;51.300;12.394;2023-09-18T02:29:22;5.77;;;3.47;;
25327;SDS011;13279;51.300;12.394;2023-09-18T02:31:51;3.80;;;3.50;;
25327;SDS011;13279;51.300;12.394;2023-09-18T02:34:19;3.80;;;3.30;;
25327;SDS011;13279;51.300;12.394;2023-09-18T02:36:46;6.37;;;3.87;;
25327;SDS011;13279;51.300;12.394;2023-09-18T02:39:15;4.03;;;3.63;;
25327;SDS011;13279;51.300;12.394;2023-09-18T02:41:42;5.83;;;3.57;;
25327;SDS011;13279;51.300;12.394;2023-09-18T02:44:10;4.63;;;3.63;;
25327;SDS011;13279;51.300;12.394;2023-09-18T02:46:37;4.00;;;3.60;;
25327;SDS011;13279;51.300;12.394;2023-09-18T02:49:06;4.83;;;3.53;;
25327;SDS011;13279;51.300;12.394;2023-09-18T02:51:33;7.43;;;3.90;;
25327;SDS011;13279;51.300;12.394;2023-09-18T02:54:02;6.53;;;3.97;;
25327;SDS011;13279;51.300;12.394;2023-09-18T02:56:32;4.97;;;4.13;;
25327;SDS011;13279;51.300;12.394;2023-09-18T02:58:59;5.17;;;3.67;;
25327;SDS011;13279;51.300;12.394;2023-09-18T03:01:27;5.90;;;3.90;;
25327;SDS011;13279;51.300;12.394;2023-09-18T03:03:54;4.00;;;3.60;;
25327;SDS011;13279;51.300;12.394;2023-09-18T03:06:26;4.93;;;3.80;;
25327;SDS011;13279;51.300;12.394;2023-09-18T03:08:53;4.77;;;4.00;;
25327;SDS011;13279;51.300;12.394;2023-09-18T03:11:21;5.27;;;4.43;;
25327;SDS011;13279;51.300;12.394;2023-09-18T03:13:53;8.93;;;3.67;;
25327;SDS011;13279;51.300;12.394;2023-09-18T03:16:21;4.10;;;3.70;;
25327;SDS011;13279;51.300;12.394;2023-09-18T03:18:48;6.70;;;4.13;;
25327;SDS011;13279;51.300;12.394;2023-09-18T03:21:16;9.93;;;4.07;;
25327;SDS011;13279;51.300;12.394;2023-09-18T03:23:45;3.90;;;3.27;;
25327;SDS011;13279;51.300;12.394;2023-09-18T03:26:12;6.57;;;3.60;;
25327;SDS011;13279;51.300;12.394;2023-09-18T03:28:40;5.67;;;4.00;;
25327;SDS011;13279;51.300;12.394;2023-09-18T03:31:09;7.60;;;4.47;;
25327;SDS011;13279;51.300;12.394;2023-09-18T03:33:36;7.83;;;4.33;;
25327;SDS011;13279;51.300;12.394;2023-09-18T03:36:04;5.00;;;3.50;;
25327;SDS011;13279;51.300;12.394;2023-09-18T03:38:34;6.70;;;4.03;;
25327;SDS011;13279;51.300;12.394;2023-09-18T03:41:04;4.83;;;3.77;;
25327;SDS011;13279;51.300;12.394;2023-09-18T03:43:32;7.27;;;4.30;;
25327;SDS011;13279;51.300;12.394;2023-09-18T03:46:03;6.80;;;3.90;;
25327;SDS011;13279;51.300;12.394;2023-09-18T03:48:33;6.77;;;3.90;;
25327;SDS011;13279;51.300;12.394;2023-09-18T03:51:03;4.87;;;3.77;;
25327;SDS011;13279;51.300;12.394;2023-09-18T03:53:31;8.93;;;4.00;;
25327;SDS011;13279;51.300;12.394;2023-09-18T03:55:59;5.03;;;3.97;;
25327;SDS011;13279;51.300;12.394;2023-09-18T03:58:28;8.07;;;3.80;;
25327;SDS011;13279;51.300;12.394;2023-09-18T04:00:56;4.40;;;4.00;;
25327;SDS011;13279;51.300;12.394;2023-09-18T04:03:23;5.37;;;3.33;;
25327;SDS011;13279;51.300;12.394;2023-09-18T04:05:51;5.27;;;4.07;;
25327;SDS011;13279;51.300;12.394;2023-09-18T04:08:18;4.93;;;3.67;;
25327;SDS011;13279;51.300;12.394;2023-09-18T04:10:46;5.00;;;3.87;;
25327;SDS011;13279;51.300;12.394;2023-09-18T04:13:14;6.43;;;3.57;;
25327;SDS011;13279;51.300;12.394;2023-09-18T04:15:43;4.60;;;3.87;;
25327;SDS011;13279;51.300;12.394;2023-09-18T04:18:11;7.03;;;3.70;;
25327;SDS011;13279;51.300;12.394;2023-09-18T04:20:39;4.33;;;3.63;;
25327;SDS011;13279;51.300;12.394;2023-09-18T04:23:17;4.47;;;3.87;;
25327;SDS011;13279;51.300;12.394;2023-09-18T04:25:46;5.03;;;3.80;;
25327;SDS011;13279;51.300;12.394;2023-09-18T04:28:13;4.33;;;3.10;;
25327;SDS011;13279;51.300;12.394;2023-09-18T04:30:42;4.13;;;3.53;;
25327;SDS011;13279;51.300;12.394;2023-09-18T04:33:13;6.10;;;3.57;;
25327;SDS011;13279;51.300;12.394;2023-09-18T04:35:41;4.80;;;3.83;;
25327;SDS011;13279;51.300;12.394;2023-09-18T04:38:11;4.93;;;3.53;;
25327;SDS011;13279;51.300;12.394;2023-09-18T04:40:41;3.73;;;3.43;;
25327;SDS011;13279;51.300;12.394;2023-09-18T04:43:09;4.63;;;4.23;;
25327;SDS011;13279;51.300;12.394;2023-09-18T04:45:36;6.73;;;4.27;;
25327;SDS011;13279;51.300;12.394;2023-09-18T04:48:07;4.27;;;3.33;;
25327;SDS011;13279;51.300;12.394;2023-09-18T04:50:35;4.30;;;3.90;;
25327;SDS011;13279;51.300;12.394;2023-09-18T04:53:02;5.03;;;4.10;;
25327;SDS011;13279;51.300;12.394;2023-09-18T04:55:30;8.47;;;3.77;;
25327;SDS011;13279;51.300;12.394;2023-09-18T04:57:58;6.83;;;4.50;;
25327;SDS011;13279;51.300;12.394;2023-09-18T05:00:26;5.20;;;4.00;;
25327;SDS011;13279;51.300;12.394;2023-09-18T05:02:55;7.50;;;4.30;;
25327;SDS011;13279;51.300;12.394;2023-09-18T05:05:25;6.17;;;4.27;;
25327;SDS011;13279;51.300;12.394;2023-09-18T05:07:52;4.40;;;4.00;;
25327;SDS011;13279;51.300;12.394;2023-09-18T05:10:20;5.73;;;4.23;;
25327;SDS011;13279;51.300;12.394;2023-09-18T05:12:48;6.90;;;3.90;;
25327;SDS011;13279;51.300;12.394;2023-09-18T05:15:16;3.50;;;3.20;;
25327;SDS011;13279;51.300;12.394;2023-09-18T05:17:44;5.33;;;4.20;;
25327;SDS011;13279;51.300;12.394;2023-09-18T05:20:13;7.40;;;4.00;;
25327;SDS011;13279;51.300;12.394;2023-09-18T05:22:44;4.83;;;4.00;;
25327;SDS011;13279;51.300;12.394;2023-09-18T05:25:11;13.17;;;4.43;;
25327;SDS011;13279;51.300;12.394;2023-09-18T05:27:40;4.60;;;4.20;;
25327;SDS011;13279;51.300;12.394;2023-09-18T05:30:11;6.13;;;4.40;;
25327;SDS011;13279;51.300;12.394;2023-09-18T05:32:41;7.50;;;4.30;;
25327;SDS011;13279;51.300;12.394;2023-09-18T05:35:09;3.73;;;3.43;;
25327;SDS011;13279;51.300;12.394;2023-09-18T05:37:38;4.30;;;3.87;;
25327;SDS011;13279;51.300;12.394;2023-09-18T05:40:08;5.73;;;4.03;;
25327;SDS011;13279;51.300;12.394;2023-09-18T05:42:37;5.30;;;4.20;;
25327;SDS011;13279;51.300;12.394;2023-09-18T05:45:09;5.70;;;4.30;;
25327;SDS011;13279;51.300;12.394;2023-09-18T05:47:36;4.93;;;4.20;;
25327;SDS011;13279;51.300;12.394;2023-09-18T05:50:04;10.13;;;4.53;;
25327;SDS011;13279;51.300;12.394;2023-09-18T05:52:33;7.17;;;4.17;;
25327;SDS011;13279;51.300;12.394;2023-09-18T05:55:00;6.33;;;4.90;;
25327;SDS011;13279;51.300;12.394;2023-09-18T05:57:30;4.70;;;4.30;;
25327;SDS011;13279;51.300;12.394;2023-09-18T05:59:57;5.77;;;4.33;;
25327;SDS011;13279;51.300;12.394;2023-09-18T06:02:25;4.90;;;4.20;;
25327;SDS011;13279;51.300;12.394;2023-09-18T06:04:54;4.73;;;4.10;;
25327;SDS011;13279;51.300;12.394;2023-09-18T06:07:24;10.33;;;4.50;;
25327;SDS011;13279;51.300;12.394;2023-09-18T06:09:56;6.13;;;4.10;;
25327;SDS011;13279;51.300;12.394;2023-09-18T06:15:51;6.10;;;4.00;;
25327;SDS011;13279;51.300;12.394;2023-09-18T06:18:20;4.30;;;3.90;;
25327;SDS011;13279;51.300;12.394;2023-09-18T06:20:57;8.50;;;4.43;;
25327;SDS011;13279;51.300;12.394;2023-09-18T06:23:25;6.97;;;4.60;;
25327;SDS011;13279;51.300;12.394;2023-09-18T06:25:57;6.50;;;4.40;;
25327;SDS011;13279;51.300;12.394;2023-09-18T06:28:25;10.07;;;3.93;;
25327;SDS011;13279;51.300;12.394;2023-09-18T06:30:54;11.90;;;4.43;;
25327;SDS011;13279;51.300;12.394;2023-09-18T06:33:21;7.27;;;4.53;;
25327;SDS011;13279;51.300;12.394;2023-09-18T06:35:49;6.70;;;4.43;;
25327;SDS011;13279;51.300;12.394;2023-09-18T06:38:17;8.67;;;4.63;;
25327;SDS011;13279;51.300;12.394;2023-09-18T06:40:46;7.87;;;4.10;;
25327;SDS011;13279;51.300;12.394;2023-09-18T06:43:13;6.20;;;3.80;;
25327;SDS011;13279;51.300;12.394;2023-09-18T06:45:41;4.43;;;4.03;;
25327;SDS011;13279;51.300;12.394;2023-09-18T06:48:10;4.93;;;3.87;;
25327;SDS011;13279;51.300;12.394;2023-09-18T06:50:39;4.00;;;3.70;;
25327;SDS011;13279;51.300;12.394;2023-09-18T06:53:07;4.43;;;3.77;;
25327;SDS011;13279;51.300;12.394;2023-09-18T06:55:36;4.00;;;3.60;;
25327;SDS011;13279;51.300;12.394;2023-09-18T06:58:03;5.23;;;3.20;;
25327;SDS011;13279;51.300;12.394;2023-09-18T07:00:31;7.07;;;3.50;;
25327;SDS011;13279;51.300;12.394;2023-09-18T07:02:58;3.63;;;3.27;;
25327;SDS011;13279;51.300;12.394;2023-09-18T07:05:28;5.67;;;3.50;;
25327;SDS011;13279;51.300;12.394;2023-09-18T07:07:56;10.27;;;3.67;;
25327;SDS011;13279;51.300;12.394;2023-09-18T07:10:23;3.30;;;3.00;;
25327;SDS011;13279;51.300;12.394;2023-09-18T07:12:52;6.00;;;3.53;;
25327;SDS011;13279;51.300;12.394;2023-09-18T07:15:19;5.63;;;3.47;;
25327;SDS011;13279;51.300;12.394;2023-09-18T07:17:47;5.63;;;3.53;;
25327;SDS011;13279;51.300;12.394;2023-09-18T07:20:15;9.77;;;3.73;;
25327;SDS011;13279;51.300;12.394;2023-09-18T07:22:45;9.17;;;4.13;;
25327;SDS011;13279;51.300;12.394;2023-09-18T07:25:13;15.00;;;5.30;;
25327;SDS011;13279;51.300;12.394;2023-09-18T07:27:42;6.77;;;4.60;;
25327;SDS011;13279;51.300;12.394;2023-09-18T07:30:36;12.33;;;4.73;;
25327;SDS011;13279;51.300;12.394;2023-09-18T07:33:03;5.97;;;4.30;;
25327;SDS011;13279;51.300;12.394;2023-09-18T07:35:31;3.93;;;3.53;;
25327;SDS011;13279;51.300;12.394;2023-09-18T07:37:59;5.67;;;3.47;;
25327;SDS011;13279;51.300;12.394;2023-09-18T07:40:27;8.37;;;3.73;;
25327;SDS011;13279;51.300;12.394;2023-09-18T07:42:54;9.37;;;3.97;;
25327;SDS011;13279;51.300;12.394;2023-09-18T07:45:22;3.93;;;3.43;;
25327;SDS011;13279;51.300;12.394;2023-09-18T07:47:50;3.40;;;3.10;;
25327;SDS011;13279;51.300;12.394;2023-09-18T07:50:17;8.57;;;3.20;;
25327;SDS011;13279;51.300;12.394;2023-09-18T07:52:45;3.47;;;3.17;;
25327;SDS011;13279;51.300;12.394;2023-09-18T07:55:14;8.20;;;3.60;;
25327;SDS011;13279;51.300;12.394;2023-09-18T07:57:42;3.63;;;3.20;;
25327;SDS011;13279;51.300;12.394;2023-09-18T08:00:11;12.33;;;3.47;;
25327;SDS011;13279;51.300;12.394;2023-09-18T08:02:41;10.07;;;3.40;;
25327;SDS011;13279;51.300;12.394;2023-09-18T08:05:08;7.30;;;3.40;;
25327;SDS011;13279;51.300;12.394;2023-09-18T08:07:36;8.23;;;3.37;;
25327;SDS011;13279;51.300;12.394;2023-09-18T08:10:04;6.10;;;3.60;;
25327;SDS011;13279;51.300;12.394;2023-09-18T08:12:35;11.90;;;3.50;;
25327;SDS011;13279;51.300;12.394;2023-09-18T08:15:03;7.93;;;3.03;;
25327;SDS011;13279;51.300;12.394;2023-09-18T08:17:32;9.17;;;3.53;;
25327;SDS011;13279;51.300;12.394;2023-09-18T08:19:59;6.43;;;3.53;;
25327;SDS011;13279;51.300;12.394;2023-09-18T08:22:26;4.70;;;3.10;;
25327;SDS011;13279;51.300;12.394;2023-09-18T08:24:54;12.03;;;3.00;;
25327;SDS011;13279;51.300;12.394;2023-09-18T08:27:24;10.37;;;3.77;;
25327;SDS011;13279;51.300;12.394;2023-09-18T08:29:52;8.60;;;3.10;;
25327;SDS011;13279;51.300;12.394;2023-09-18T08:32:20;7.23;;;3.40;;
25327;SDS011;13279;51.300;12.394;2023-09-18T08:34:47;7.30;;;2.90;;
25327;SDS011;13279;51.300;12.394;2023-09-18T08:37:14;11.67;;;3.30;;
25327;SDS011;13279;51.300;12.394;2023-09-18T08:39:42;14.60;;;3.00;;
25327;SDS011;13279;51.300;12.394;2023-09-18T08:42:47;9.10;;;3.40;;
25327;SDS011;13279;51.300;12.394;2023-09-18T08:45:35;22.30;;;4.37;;
25327;SDS011;13279;51.300;12.394;2023-09-18T08:48:09;12.10;;;3.53;;
25327;SDS011;13279;51.300;12.394;2023-09-18T08:50:37;7.30;;;3.03;;
25327;SDS011;13279;51.300;12.394;2023-09-18T08:53:05;4.40;;;2.80;;
25327;SDS011;13279;51.300;12.394;2023-09-18T08:55:33;3.80;;;2.90;;
25327;SDS011;13279;51.300;12.394;2023-09-18T08:58:01;6.33;;;2.90;;
25327;SDS011;13279;51.300;12.394;2023-09-18T09:00:28;4.20;;;2.63;;
25327;SDS011;13279;51.300;12.394;2023-09-18T09:03:06;7.97;;;3.07;;
25327;SDS011;13279;51.300;12.394;2023-09-18T09:05:35;5.13;;;2.93;;
25327;SDS011;13279;51.300;12.394;2023-09-18T09:08:02;4.47;;;3.27;;
25327;SDS011;13279;51.300;12.394;2023-09-18T09:10:29;4.70;;;2.70;;
25327;SDS011;13279;51.300;12.394;2023-09-18T09:12:57;4.87;;;3.10;;
25327;SDS011;13279;51.300;12.394;2023-09-18T09:15:33;3.10;;;2.80;;
25327;SDS011;13279;51.300;12.394;2023-09-18T09:18:23;2.83;;;2.40;;
25327;SDS011;13279;51.300;12.394;2023-09-18T09:20:54;11.27;;;2.73;;
25327;SDS011;13279;51.300;12.394;2023-09-18T09:23:24;2.70;;;2.50;;
25327;SDS011;13279;51.300;12.394;2023-09-18T09:25:52;8.53;;;2.80;;
25327;SDS011;13279;51.300;12.394;2023-09-18T09:31:31;6.20;;;3.00;;
25327;SDS011;13279;51.300;12.394;2023-09-18T09:34:01;4.77;;;2.43;;
25327;SDS011;13279;51.300;12.394;2023-09-18T09:36:30;2.80;;;2.40;;
25327;SDS011;13279;51.300;12.394;2023-09-18T09:38:59;4.43;;;2.70;;
25327;SDS011;13279;51.300;12.394;2023-09-18T09:41:30;2.50;;;2.30;;
25327;SDS011;13279;51.300;12.394;2023-09-18T09:43:59;8.80;;;2.50;;
25327;SDS011;13279;51.300;12.394;2023-09-18T09:46:27;7.37;;;2.90;;
25327;SDS011;13279;51.300;12.394;2023-09-18T09:49:05;5.77;;;2.87;;
25327;SDS011;13279;51.300;12.394;2023-09-18T09:51:33;5.97;;;3.20;;
25327;SDS011;13279;51.300;12.394;2023-09-18T09:54:00;6.23;;;2.57;;
25327;SDS011;13279;51.300;12.394;2023-09-18T09:56:41;12.03;;;3.40;;
25327;SDS011;13279;51.300;12.394;2023-09-18T09:59:10;6.73;;;3.00;;
25327;SDS011;13279;51.300;12.394;2023-09-18T10:01:40;3.90;;;2.63;;
25327;SDS011;13279;51.300;12.394;2023-09-18T10:04:12;3.87;;;2.50;;
25327;SDS011;13279;51.300;12.394;2023-09-18T10:06:43;4.87;;;2.50;;
25327;SDS011;13279;51.300;12.394;2023-09-18T10:09:17;2.90;;;2.60;;
25327;SDS011;13279;51.300;12.394;2023-09-18T10:11:56;5.67;;;2.80;;
25327;SDS011;13279;51.300;12.394;2023-09-18T10:14:28;8.90;;;2.83;;
25327;SDS011;13279;51.300;12.394;2023-09-18T10:17:09;5.83;;;2.73;;
25327;SDS011;13279;51.300;12.394;2023-09-18T10:19:49;3.07;;;2.60;;
25327;SDS011;13279;51.300;12.394;2023-09-18T10:22:26;4.53;;;3.10;;
25327;SDS011;13279;51.300;12.394;2023-09-18T10:25:20;8.77;;;2.70;;
25327;SDS011;13279;51.300;12.394;2023-09-18T10:27:50;8.30;;;3.00;;
25327;SDS011;13279;51.300;12.394;2023-09-18T10:30:20;4.23;;;2.67;;
25327;SDS011;13279;51.300;12.394;2023-09-18T10:32:48;10.50;;;3.10;;
25327;SDS011;13279;51.300;12.394;2023-09-18T10:35:18;12.63;;;3.77;;
25327;SDS011;13279;51.300;12.394;2023-09-18T10:37:49;3.93;;;2.50;;
25327;SDS011;13279;51.300;12.394;2023-09-18T10:40:20;5.67;;;2.83;;
25327;SDS011;13279;51.300;12.394;2023-09-18T10:42:47;5.20;;;2.93;;
25327;SDS011;13279;51.300;12.394;2023-09-18T10:45:16;4.63;;;2.73;;
25327;SDS011;13279;51.300;12.394;2023-09-18T10:47:44;8.17;;;2.90;;
25327;SDS011;13279;51.300;12.394;2023-09-18T10:50:23;6.83;;;2.70;;
25327;SDS011;13279;51.300;12.394;2023-09-18T10:52:51;7.83;;;2.67;;
25327;SDS011;13279;51.300;12.394;2023-09-18T10:55:20;9.73;;;3.00;;
25327;SDS011;13279;51.300;12.394;2023-09-18T10:57:50;5.47;;;2.30;;
25327;SDS011;13279;51.300;12.394;2023-09-18T11:00:18;7.00;;;2.90;;
25327;SDS011;13279;51.300;12.394;2023-09-18T11:02:49;9.83;;;3.10;;
25327;SDS011;13279;51.300;12.394;2023-09-18T11:10:54;7.10;;;2.90;;
25327;SDS011;13279;51.300;12.394;2023-09-18T11:13:31;4.80;;;2.70;;
25327;SDS011;13279;51.300;12.394;2023-09-18T11:16:02;9.40;;;2.80;;
25327;SDS011;13279;51.300;12.394;2023-09-18T11:18:40;12.80;;;3.20;;
25327;SDS011;13279;51.300;12.394;2023-09-18T11:21:10;6.10;;;3.20;;
25327;SDS011;13279;51.300;12.394;2023-09-18T11:23:38;11.97;;;3.33;;
25327;SDS011;13279;51.300;12.394;2023-09-18T11:29:18;8.27;;;3.30;;
25327;SDS011;13279;51.300;12.394;2023-09-18T11:32:02;10.90;;;3.30;;
25327;SDS011;13279;51.300;12.394;2023-09-18T11:34:30;10.70;;;3.50;;
25327;SDS011;13279;51.300;12.394;2023-09-18T11:37:40;9.70;;;2.93;;
25327;SDS011;13279;51.300;12.394;2023-09-18T11:40:30;6.43;;;3.00;;
25327;SDS011;13279;51.300;12.394;2023-09-18T11:43:22;9.57;;;3.20;;
25327;SDS011;13279;51.300;12.394;2023-09-18T11:46:08;9.93;;;3.57;;
25327;SDS011;13279;51.300;12.394;2023-09-18T11:48:52;10.03;;;3.37;;
25327;SDS011;13279;51.300;12.394;2023-09-18T11:51:29;10.43;;;2.83;;
25327;SDS011;13279;51.300;12.394;2023-09-18T11:53:58;10.60;;;3.13;;
25327;SDS011;13279;51.300;12.394;2023-09-18T11:56:29;7.20;;;2.80;;
25327;SDS011;13279;51.300;12.394;2023-09-18T11:59:05;6.93;;;2.90;;
25327;SDS011;13279;51.300;12.394;2023-09-18T12:01:39;6.50;;;2.90;;
25327;SDS011;13279;51.300;12.394;2023-09-18T12:04:12;6.17;;;2.60;;
25327;SDS011;13279;51.300;12.394;2023-09-18T12:06:40;8.63;;;3.73;;
25327;SDS011;13279;51.300;12.394;2023-09-18T12:09:09;7.70;;;3.90;;
25327;SDS011;13279;51.300;12.394;2023-09-18T12:11:41;10.90;;;4.00;;
25327;SDS011;13279;51.300;12.394;2023-09-18T12:14:08;6.77;;;3.20;;
25327;SDS011;13279;51.300;12.394;2023-09-18T12:16:37;9.37;;;3.40;;
25327;SDS011;13279;51.300;12.394;2023-09-18T12:19:05;6.77;;;3.13;;
25327;SDS011;13279;51.300;12.394;2023-09-18T12:21:33;12.97;;;3.57;;
25327;SDS011;13279;51.300;12.394;2023-09-18T12:24:12;3.77;;;3.00;;
25327;SDS011;13279;51.300;12.394;2023-09-18T12:26:41;8.33;;;3.20;;
25327;SDS011;13279;51.300;12.394;2023-09-18T12:29:09;6.97;;;3.13;;
25327;SDS011;13279;51.300;12.394;2023-09-18T12:31:37;11.33;;;3.93;;
25327;SDS011;13279;51.300;12.394;2023-09-18T12:34:05;11.93;;;3.33;;
25327;SDS011;13279;51.300;12.394;2023-09-18T12:36:41;14.07;;;3.40;;
25327;SDS011;13279;51.300;12.394;2023-09-18T12:39:09;7.23;;;3.33;;
25327;SDS011;13279;51.300;12.394;2023-09-18T12:41:39;6.17;;;4.13;;
25327;SDS011;13279;51.300;12.394;2023-09-18T12:44:07;6.10;;;4.20;;
25327;SDS011;13279;51.300;12.394;2023-09-18T12:46:36;7.77;;;3.33;;
25327;SDS011;13279;51.300;12.394;2023-09-18T12:49:16;9.40;;;3.63;;
25327;SDS011;13279;51.300;12.394;2023-09-18T12:51:53;7.83;;;3.47;;
25327;SDS011;13279;51.300;12.394;2023-09-18T12:54:36;7.97;;;3.47;;
25327;SDS011;13279;51.300;12.394;2023-09-18T12:57:08;7.63;;;3.17;;
25327;SDS011;13279;51.300;12.394;2023-09-18T12:59:37;8.80;;;3.23;;
25327;SDS011;13279;51.300;12.394;2023-09-18T13:02:05;13.20;;;3.23;;
25327;SDS011;13279;51.300;12.394;2023-09-18T13:04:34;15.63;;;4.07;;
25327;SDS011;13279;51.300;12.394;2023-09-18T13:07:07;5.50;;;2.90;;
25327;SDS011;13279;51.300;12.394;2023-09-18T13:09:37;9.50;;;2.57;;
25327;SDS011;13279;51.300;12.394;2023-09-18T13:12:07;5.40;;;2.90;;
25327;SDS011;13279;51.300;12.394;2023-09-18T13:17:25;9.03;;;3.13;;
25327;SDS011;13279;51.300;12.394;2023-09-18T13:19:53;3.97;;;2.50;;
25327;SDS011;13279;51.300;12.394;2023-09-18T13:22:24;4.03;;;3.17;;
25327;SDS011;13279;51.300;12.394;2023-09-18T13:24:55;7.83;;;2.97;;
25327;SDS011;13279;51.300;12.394;2023-09-18T13:27:25;10.57;;;3.23;;
25327;SDS011;13279;51.300;12.394;2023-09-18T13:29:52;12.27;;;3.33;;
25327;SDS011;13279;51.300;12.394;2023-09-18T13:32:20;10.13;;;2.97;;
25327;SDS011;13279;51.300;12.394;2023-09-18T13:34:49;5.00;;;3.00;;
25327;SDS011;13279;51.300;12.394;2023-09-18T13:37:18;5.00;;;3.27;;
25327;SDS011;13279;51.300;12.394;2023-09-18T13:39:46;8.10;;;2.93;;
25327;SDS011;13279;51.300;12.394;2023-09-18T13:42:13;5.60;;;3.10;;
25327;SDS011;13279;51.300;12.394;2023-09-18T13:44:42;7.73;;;3.13;;
25327;SDS011;13279;51.300;12.394;2023-09-18T13:47:12;9.27;;;2.53;;
25327;SDS011;13279;51.300;12.394;2023-09-18T13:49:40;3.63;;;2.73;;
25327;SDS011;13279;51.300;12.394;2023-09-18T13:52:08;7.43;;;2.80;;
25327;SDS011;13279;51.300;12.394;2023-09-18T13:54:36;4.27;;;2.80;;
25327;SDS011;13279;51.300;12.394;2023-09-18T13:57:03;3.20;;;2.30;;
25327;SDS011;13279;51.300;12.394;2023-09-18T13:59:31;5.00;;;3.10;;
25327;SDS011;13279;51.300;12.394;2023-09-18T14:01:59;8.27;;;3.13;;
25327;SDS011;13279;51.300;12.394;2023-09-18T14:04:29;6.37;;;2.97;;
25327;SDS011;13279;51.300;12.394;2023-09-18T14:06:57;8.13;;;3.13;;
25327;SDS011;13279;51.300;12.394;2023-09-18T14:09:25;5.40;;;2.97;;
25327;SDS011;13279;51.300;12.394;2023-09-18T14:12:05;5.87;;;2.80;;
25327;SDS011;13279;51.300;12.394;2023-09-18T14:14:38;2.97;;;2.60;;
25327;SDS011;13279;51.300;12.394;2023-09-18T14:17:08;4.10;;;2.53;;
25327;SDS011;13279;51.300;12.394;2023-09-18T14:19:36;8.63;;;2.63;;
25327;SDS011;13279;51.300;12.394;2023-09-18T14:22:04;9.20;;;2.80;;
25327;SDS011;13279;51.300;12.394;2023-09-18T14:24:31;6.70;;;2.63;;
25327;SDS011;13279;51.300;12.394;2023-09-18T14:27:01;7.60;;;3.07;;
25327;SDS011;13279;51.300;12.394;2023-09-18T14:29:29;8.73;;;2.93;;
25327;SDS011;13279;51.300;12.394;2023-09-18T14:31:57;7.90;;;3.40;;
25327;SDS011;13279;51.300;12.394;2023-09-18T14:34:26;8.50;;;3.00;;
25327;SDS011;13279;51.300;12.394;2023-09-18T14:36:56;5.43;;;2.83;;
25327;SDS011;13279;51.300;12.394;2023-09-18T14:39:23;9.67;;;3.30;;
25327;SDS011;13279;51.300;12.394;2023-09-18T14:41:52;6.57;;;2.77;;
25327;SDS011;13279;51.300;12.394;2023-09-18T14:44:20;5.00;;;2.57;;
25327;SDS011;13279;51.300;12.394;2023-09-18T14:46:48;2.97;;;2.67;;
25327;SDS011;13279;51.300;12.394;2023-09-18T14:49:16;4.27;;;2.90;;
25327;SDS011;13279;51.300;12.394;2023-09-18T14:51:45;4.53;;;2.87;;
25327;SDS011;13279;51.300;12.394;2023-09-18T14:54:12;7.70;;;2.90;;
25327;SDS011;13279;51.300;12.394;2023-09-18T14:56:40;4.97;;;2.80;;
25327;SDS011;13279;51.300;12.394;2023-09-18T14:59:08;6.90;;;3.03;;
25327;SDS011;13279;51.300;12.394;2023-09-18T15:01:35;3.57;;;2.90;;
25327;SDS011;13279;51.300;12.394;2023-09-18T15:04:03;8.33;;;3.23;;
25327;SDS011;13279;51.300;12.394;2023-09-18T15:06:31;7.17;;;3.47;;